Time;durP1;ratioP1;P1;durP2;ratioP2;P2;SDS_P1;SDS_P2;PMS_P1;PMS_P2;Temp;Humidity;BMP_temperature;BMP_pressure;BME280_temperature;BME280_humidity;BME280_pressure;Samples;Min_cycle;Max_cycle;Signal;HPM_P1;HPM_P2
2022/05/17 00:01:26;;;;;;;44.88;10.60;;;;;;;12.39;100.00;100996.97;5151990;27;20045;-83
2022/05/17 00:03:52;;;;;;;42.70;9.88;;;;;;;12.39;100.00;100995.19;5150526;27;20385;-83
2022/05/17 00:06:20;;;;;;;34.70;9.73;;;;;;;12.74;100.00;101034.91;5142514;27;20434;-82
2022/05/17 00:08:47;;;;;;;61.50;13.75;;;;;;;12.08;100.00;101001.69;5148644;27;20456;-82
2022/05/17 00:11:15;;;;;;;44.78;10.43;;;;;;;12.09;100.00;101008.66;5134205;27;20396;-83
2022/05/17 00:13:43;;;;;;;38.05;9.05;;;;;;;12.32;100.00;101012.13;5140202;27;20051;-82
2022/05/17 00:16:10;;;;;;;38.20;9.73;;;;;;;11.92;100.00;100979.59;5133636;27;20642;-83
2022/05/17 00:18:38;;;;;;;35.15;10.88;;;;;;;12.19;100.00;101008.28;5134010;27;20480;-83
2022/05/17 00:21:04;;;;;;;30.23;7.30;;;;;;;12.20;100.00;101004.72;5134033;27;20043;-83
2022/05/17 00:23:32;;;;;;;26.80;7.72;;;;;;;12.49;100.00;101025.41;5134730;27;20042;-83
2022/05/17 00:25:59;;;;;;;25.15;6.28;;;;;;;12.48;100.00;100991.34;5131175;27;20043;-83
2022/05/17 00:28:27;;;;;;;20.23;6.63;;;;;;;12.64;100.00;100996.81;5151848;27;20480;-83
2022/05/17 00:30:54;;;;;;;29.20;7.45;;;;;;;12.18;100.00;100975.06;5151729;27;20043;-83
2022/05/17 00:33:21;;;;;;;18.83;5.53;;;;;;;12.76;100.00;101025.19;5151997;27;20077;-83
2022/05/17 00:35:48;;;;;;;20.48;7.13;;;;;;;12.43;100.00;100962.66;5147960;27;20134;-83
2022/05/17 00:38:16;;;;;;;23.35;6.07;;;;;;;12.88;100.00;101023.81;5131829;27;20484;-83
2022/05/17 00:40:43;;;;;;;18.23;6.85;;;;;;;12.67;100.00;101015.91;5132085;27;20392;-83
2022/05/17 00:44:42;;;;;;;21.58;7.45;;;;;;;12.57;100.00;101014.63;5132826;27;20130;-83
2022/05/17 00:46:23;;;;;;;23.45;7.45;;;;;;;12.29;100.00;100963.22;5132516;27;20043;-83
2022/05/17 00:48:50;;;;;;;21.05;6.63;;;;;;;12.39;100.00;100984.69;5132596;28;20133;-83
2022/05/17 00:51:17;;;;;;;16.45;6.60;;;;;;;12.31;100.00;100961.38;5135803;27;20035;-83
2022/05/17 00:53:45;;;;;;;17.77;6.53;;;;;;;12.42;100.00;100967.97;5152440;27;20054;-83
2022/05/17 00:56:17;;;;;;;20.55;6.57;;;;;;;12.84;100.00;101006.50;5150352;27;20150;-83
2022/05/17 00:58:58;;;;;;;15.77;5.43;;;;;;;12.57;100.00;100942.81;5153410;27;20142;-83
2022/05/17 01:01:29;;;;;;;15.93;5.65;;;;;;;12.80;100.00;100992.63;5152553;27;20372;-82
2022/05/17 01:04:17;;;;;;;18.95;7.50;;;;;;;12.66;100.00;101002.84;5145708;27;20134;-83
2022/05/17 01:06:51;;;;;;;19.05;6.40;;;;;;;12.46;100.00;100980.88;5132329;27;20058;-82
2022/05/17 01:09:21;;;;;;;19.92;7.20;;;;;;;12.28;100.00;100932.63;5148507;27;20073;-83
2022/05/17 01:11:47;;;;;;;19.63;7.10;;;;;;;12.72;100.00;100971.06;5147652;27;20400;-83
2022/05/17 01:17:01;;;;;;;16.55;6.90;;;;;;;12.79;100.00;100998.78;5146609;27;20053;-83
2022/05/17 01:19:28;;;;;;;15.63;6.03;;;;;;;12.54;100.00;100980.59;5153723;27;20520;-83
2022/05/17 01:21:55;;;;;;;21.20;7.60;;;;;;;12.61;100.00;100971.53;5144231;27;20043;-83
2022/05/17 01:24:22;;;;;;;17.50;8.13;;;;;;;12.40;100.00;100980.31;5152406;27;20053;-83
2022/05/17 01:26:55;;;;;;;18.48;6.93;;;;;;;12.26;100.00;100965.13;5142732;27;20047;-82
2022/05/17 01:29:22;;;;;;;14.30;5.78;;;;;;;12.40;100.00;100977.69;5132965;28;20047;-82
2022/05/17 01:31:51;;;;;;;17.55;8.05;;;;;;;12.26;100.00;100947.59;5131660;28;20043;-83
2022/05/17 01:34:18;;;;;;;17.13;7.43;;;;;;;12.44;100.00;100943.34;5132930;27;20045;-83
2022/05/17 01:36:45;;;;;;;18.88;6.85;;;;;;;12.85;100.00;100995.88;5140871;27;20133;-83
2022/05/17 01:39:11;;;;;;;14.23;5.80;;;;;;;12.87;100.00;100970.41;5152597;27;20050;-82
2022/05/17 01:41:38;;;;;;;15.98;5.88;;;;;;;12.66;100.00;100959.06;5148940;27;20046;-83
2022/05/17 01:44:05;;;;;;;18.40;7.03;;;;;;;12.98;100.00;100988.34;5137136;27;20047;-83
2022/05/17 01:46:32;;;;;;;14.80;6.57;;;;;;;12.84;100.00;100977.59;5145361;27;20056;-83
2022/05/17 01:48:58;;;;;;;16.48;6.47;;;;;;;12.99;100.00;100968.16;5147989;27;20047;-83
2022/05/17 01:51:25;;;;;;;13.10;6.00;;;;;;;12.84;100.00;100943.41;5157508;27;20049;-83
2022/05/17 01:53:52;;;;;;;13.52;6.35;;;;;;;12.75;100.00;100954.31;5156886;27;20133;-83
2022/05/17 01:56:19;;;;;;;15.70;6.25;;;;;;;12.90;100.00;100977.31;5148688;27;20039;-83
2022/05/17 01:58:46;;;;;;;12.43;5.88;;;;;;;12.70;100.00;100988.69;5135216;27;20054;-83
2022/05/17 02:01:13;;;;;;;15.20;5.38;;;;;;;12.93;100.00;100986.84;5135549;27;20057;-83
2022/05/17 02:03:40;;;;;;;15.00;6.28;;;;;;;12.84;100.00;100951.31;5149965;27;20089;-83
2022/05/17 02:06:07;;;;;;;16.27;5.97;;;;;;;12.86;100.00;100952.94;5156624;27;20047;-83
2022/05/17 02:08:34;;;;;;;12.60;5.80;;;;;;;12.70;100.00;100959.78;5156499;27;20491;-83
2022/05/17 02:11:01;;;;;;;12.98;6.07;;;;;;;12.78;100.00;100991.81;5157166;27;20051;-83
2022/05/17 02:13:28;;;;;;;15.43;6.18;;;;;;;12.47;100.00;100937.97;5156241;27;20475;-83
2022/05/17 02:15:55;;;;;;;14.38;4.88;;;;;;;12.49;100.00;100975.50;5143063;27;20042;-82
2022/05/17 02:18:22;;;;;;;12.98;5.43;;;;;;;12.50;100.00;100966.72;5135650;27;20090;-83
2022/05/17 02:20:48;;;;;;;13.38;6.10;;;;;;;12.43;100.00;100967.91;5136677;27;20035;-83
2022/05/17 02:23:18;;;;;;;14.68;5.90;;;;;;;12.51;100.00;100950.03;5150403;27;20604;-83
2022/05/17 02:25:45;;;;;;;16.42;5.57;;;;;;;12.75;100.00;100960.44;5139055;27;20039;-83
2022/05/17 02:28:13;;;;;;;15.40;6.50;;;;;;;12.67;100.00;100954.66;5141481;27;20043;-83
2022/05/17 02:30:42;;;;;;;14.25;6.10;;;;;;;12.90;100.00;100964.16;5155675;27;20396;-83
2022/05/17 02:33:10;;;;;;;13.85;6.20;;;;;;;12.93;100.00;100966.66;5155599;27;20051;-83
2022/05/17 02:35:37;;;;;;;14.60;6.15;;;;;;;12.55;100.00;100921.88;5155610;27;20484;-83
2022/05/17 02:38:05;;;;;;;12.98;6.45;;;;;;;12.49;100.00;100909.84;5154703;27;20064;-83
2022/05/17 02:40:32;;;;;;;10.23;4.85;;;;;;;12.53;100.00;100979.72;5156109;27;20057;-83
2022/05/17 02:43:13;;;;;;;13.40;6.85;;;;;;;12.43;100.00;100975.78;5138383;27;20039;-82
2022/05/17 02:45:44;;;;;;;11.80;4.68;;;;;;;12.65;100.00;100967.84;5146807;27;20050;-82
2022/05/17 02:48:11;;;;;;;11.48;4.80;;;;;;;12.57;100.00;100941.06;5143312;27;20138;-82
2022/05/17 02:50:38;;;;;;;11.95;4.97;;;;;;;12.93;100.00;100982.44;5133838;27;20043;-83
2022/05/17 02:53:05;;;;;;;12.68;4.53;;;;;;;12.89;100.00;100972.94;5144131;27;20498;-82
2022/05/17 02:55:32;;;;;;;13.95;5.95;;;;;;;12.32;100.00;100943.84;5149716;27;20088;-82
2022/05/17 02:57:59;;;;;;;16.58;7.53;;;;;;;12.46;100.00;100978.25;5135104;27;20054;-83
2022/05/17 03:00:26;;;;;;;13.45;5.88;;;;;;;12.06;100.00;100934.44;5135055;27;20599;-82
2022/05/17 03:02:53;;;;;;;12.90;6.18;;;;;;;12.32;100.00;100962.22;5148458;27;20145;-81
2022/05/17 03:05:20;;;;;;;11.20;4.80;;;;;;;12.52;100.00;100970.16;5155528;27;20734;-81
2022/05/17 03:07:48;;;;;;;10.57;4.38;;;;;;;12.40;100.00;100925.16;5147521;27;20524;-81
2022/05/17 03:10:15;;;;;;;10.30;4.93;;;;;;;12.42;100.00;100950.44;5154347;27;20057;-83
2022/05/17 03:12:42;;;;;;;13.38;5.18;;;;;;;12.29;100.00;100939.59;5155908;27;20061;-81
2022/05/17 03:15:10;;;;;;;14.40;6.68;;;;;;;12.34;100.00;100995.41;5148033;27;20050;-81
2022/05/17 03:17:36;;;;;;;12.25;5.18;;;;;;;12.14;100.00;100984.84;5152257;27;20057;-83
2022/05/17 03:20:04;;;;;;;10.98;5.28;;;;;;;11.76;100.00;100943.44;5153680;27;20054;-84
2022/05/17 03:22:31;;;;;;;10.80;4.45;;;;;;;12.35;100.00;100986.59;5153962;27;20068;-84
2022/05/17 03:24:58;;;;;;;12.48;5.63;;;;;;;11.98;100.00;100963.59;5147716;27;20051;-83
2022/05/17 03:27:44;;;;;;;12.10;6.50;;;;;;;11.85;100.00;100949.25;5148126;27;20722;-83
2022/05/17 03:30:12;;;;;;;13.00;5.55;;;;;;;12.19;100.00;100979.41;5132946;27;20043;-83
2022/05/17 03:32:38;;;;;;;14.50;5.30;;;;;;;11.93;100.00;100981.28;5132520;27;20043;-83
2022/05/17 03:35:06;;;;;;;15.00;7.10;;;;;;;11.74;100.00;100979.38;5142673;27;20050;-83
2022/05/17 03:37:33;;;;;;;14.93;6.53;;;;;;;11.77;100.00;100984.50;5149844;27;20039;-83
2022/05/17 03:40:00;;;;;;;16.85;7.18;;;;;;;11.52;100.00;100989.81;5133367;27;20053;-83
2022/05/17 03:42:26;;;;;;;23.50;10.60;;;;;;;11.79;100.00;101044.75;5145910;27;20053;-83
2022/05/17 03:44:53;;;;;;;14.35;7.00;;;;;;;11.76;100.00;101013.41;5154065;27;20057;-83
2022/05/17 03:47:20;;;;;;;16.80;7.47;;;;;;;11.64;100.00;100998.13;5153801;27;20057;-83
2022/05/17 03:49:47;;;;;;;16.02;7.75;;;;;;;11.64;100.00;101013.88;5144090;27;20407;-83
2022/05/17 03:52:14;;;;;;;20.67;10.02;;;;;;;11.38;100.00;100973.72;5132596;27;20056;-83
2022/05/17 03:54:41;;;;;;;15.15;7.30;;;;;;;11.62;100.00;101008.69;5132469;27;20047;-82
2022/05/17 03:57:08;;;;;;;14.65;7.30;;;;;;;11.78;100.00;101036.03;5135076;27;20045;-82
2022/05/17 03:59:35;;;;;;;16.63;8.63;;;;;;;11.52;100.00;101002.06;5154186;27;20039;-82
2022/05/17 04:02:03;;;;;;;19.67;7.22;;;;;;;11.67;100.00;101045.22;5154134;27;20043;-82
2022/05/17 04:04:30;;;;;;;24.02;10.88;;;;;;;11.34;100.00;101027.19;5142659;27;20066;-83
2022/05/17 04:06:56;;;;;;;22.35;9.25;;;;;;;11.50;100.00;101028.34;5140293;27;20050;-82
2022/05/17 04:09:23;;;;;;;18.20;7.13;;;;;;;11.71;100.00;101004.84;5148673;27;20043;-83
2022/05/17 04:11:50;;;;;;;17.88;8.15;;;;;;;11.76;100.00;101009.00;5145365;27;20043;-83
2022/05/17 04:14:17;;;;;;;16.65;7.40;;;;;;;11.35;100.00;100985.19;5141576;27;20053;-83
2022/05/17 04:16:44;;;;;;;19.38;9.45;;;;;;;11.32;100.00;100980.06;5145008;27;20053;-82
2022/05/17 04:19:14;;;;;;;19.70;8.93;;;;;;;11.51;100.00;101009.09;5146513;27;20047;-82
2022/05/17 04:21:41;;;;;;;18.13;8.00;;;;;;;11.81;100.00;101006.22;5149241;27;20041;-82
2022/05/17 04:24:08;;;;;;;17.48;7.40;;;;;;;11.54;100.00;101008.09;5146049;27;20061;-82
2022/05/17 04:26:35;;;;;;;19.42;8.35;;;;;;;11.82;100.00;101009.69;5149621;27;20039;-82
2022/05/17 04:29:03;;;;;;;20.92;9.05;;;;;;;11.92;100.00;101011.09;5144126;27;20426;-82
2022/05/17 04:31:30;;;;;;;21.85;10.93;;;;;;;11.51;100.00;100995.09;5148393;27;20050;-83
2022/05/17 04:33:57;;;;;;;21.75;10.30;;;;;;;11.39;100.00;101015.63;5145038;27;20060;-83
2022/05/17 04:36:24;;;;;;;21.70;8.68;;;;;;;11.59;100.00;101009.63;5139699;27;20046;-82
2022/05/17 04:38:51;;;;;;;19.60;8.82;;;;;;;11.72;100.00;101011.78;5144616;27;20042;-81
2022/05/17 04:41:17;;;;;;;17.40;7.88;;;;;;;11.65;100.00;101012.94;5147573;27;20587;-81
2022/05/17 04:43:49;;;;;;;23.23;11.13;;;;;;;11.45;100.00;101005.81;5142531;27;20181;-83
2022/05/17 04:46:16;;;;;;;19.83;7.32;;;;;;;11.65;100.00;101005.06;5146724;27;20641;-83
2022/05/17 04:48:43;;;;;;;21.48;9.98;;;;;;;11.70;100.00;101052.97;5144521;27;20084;-82
2022/05/17 04:51:11;;;;;;;25.33;12.07;;;;;;;11.43;100.00;101055.69;5132936;27;20047;-82
2022/05/17 04:53:39;;;;;;;25.63;11.23;;;;;;;11.45;100.00;101030.28;5137623;27;20051;-82
2022/05/17 04:56:08;;;;;;;22.83;9.52;;;;;;;11.65;100.00;101026.94;5146236;27;20123;-83
2022/05/17 04:58:35;;;;;;;16.27;7.40;;;;;;;11.58;100.00;101036.78;5150211;27;20047;-83
2022/05/17 05:01:02;;;;;;;26.27;10.93;;;;;;;11.32;100.00;101016.75;5146795;27;20042;-83
2022/05/17 05:03:30;;;;;;;22.02;10.55;;;;;;;11.77;100.00;101054.44;5137711;27;20134;-83
2022/05/17 05:05:56;;;;;;;17.10;7.72;;;;;;;11.74;100.00;101042.31;5145997;27;20042;-83
2022/05/17 05:08:23;;;;;;;19.83;8.68;;;;;;;11.81;100.00;101047.31;5149855;27;20047;-82
2022/05/17 05:10:54;;;;;;;20.27;8.13;;;;;;;11.85;100.00;101014.84;5148581;27;20090;-82
2022/05/17 05:13:22;;;;;;;15.43;7.28;;;;;;;12.39;100.00;101026.69;5146018;27;20125;-83
2022/05/17 05:15:50;;;;;;;33.50;9.50;;;;;;;11.84;100.00;101037.56;5144100;27;20046;-83
2022/05/17 05:18:17;;;;;;;23.98;9.70;;;;;;;11.76;100.00;101037.88;5146983;27;20070;-83
2022/05/17 05:20:44;;;;;;;23.05;9.88;;;;;;;11.51;100.00;101022.19;5154468;27;20050;-83
2022/05/17 05:23:11;;;;;;;28.00;10.23;;;;;;;11.67;100.00;101066.19;5152083;27;20047;-83
2022/05/17 05:25:38;;;;;;;15.27;7.13;;;;;;;11.66;100.00;101009.41;5142413;27;20047;-83
2022/05/17 05:28:07;;;;;;;18.85;8.18;;;;;;;12.07;100.00;101064.72;5151033;27;20043;-83
2022/05/17 05:30:35;;;;;;;21.30;8.50;;;;;;;11.98;100.00;101065.94;5150661;27;20059;-83
2022/05/17 05:33:02;;;;;;;40.53;9.90;;;;;;;11.85;100.00;101069.94;5150537;27;20082;-83
2022/05/17 05:35:29;;;;;;;22.38;7.75;;;;;;;11.94;100.00;101051.25;5147299;27;20042;-83
2022/05/17 05:37:56;;;;;;;48.97;11.07;;;;;;;11.87;100.00;101074.19;5144686;27;20137;-83
2022/05/17 05:40:23;;;;;;;23.17;8.52;;;;;;;11.76;100.00;101061.47;5150259;27;20380;-83
2022/05/17 05:42:50;;;;;;;30.33;8.30;;;;;;;11.83;100.00;101051.63;5149432;27;20050;-83
2022/05/17 05:45:18;;;;;;;25.05;7.28;;;;;;;11.77;100.00;101039.59;5137226;27;20469;-83
2022/05/17 05:47:46;;;;;;;31.25;10.63;;;;;;;11.89;100.00;101082.84;5136361;27;20560;-82
2022/05/17 05:50:12;;;;;;;35.80;9.32;;;;;;;11.66;100.00;101073.22;5142953;27;20536;-82
2022/05/17 05:52:39;;;;;;;24.85;6.93;;;;;;;11.65;100.00;101065.41;5154982;27;20452;-84
2022/05/17 05:55:07;;;;;;;13.65;5.68;;;;;;;11.86;100.00;101085.59;5138317;27;20054;-83
2022/05/17 05:57:34;;;;;;;20.65;6.60;;;;;;;11.91;100.00;101074.97;5152107;27;20484;-83
2022/05/17 06:00:01;;;;;;;21.00;8.95;;;;;;;11.25;100.00;101009.19;5154084;27;20053;-84
2022/05/17 06:02:28;;;;;;;30.33;9.05;;;;;;;11.62;100.00;101094.38;5154019;27;20396;-84
2022/05/17 06:04:54;;;;;;;24.92;7.97;;;;;;;11.65;100.00;101044.41;5147796;27;20147;-83
2022/05/17 06:07:22;;;;;;;19.35;6.97;;;;;;;11.75;100.00;101048.41;5146812;27;20043;-84
2022/05/17 06:09:48;;;;;;;26.98;8.07;;;;;;;11.74;100.00;101052.81;5143132;27;20053;-83
2022/05/17 06:12:15;;;;;;;30.95;8.65;;;;;;;11.78;100.00;101079.78;5150202;27;20049;-84
2022/05/17 06:14:42;;;;;;;31.00;7.82;;;;;;;11.51;100.00;101079.00;5143296;27;20054;-84
2022/05/17 06:17:09;;;;;;;25.73;7.55;;;;;;;11.61;100.00;101075.16;5143671;27;20131;-83
2022/05/17 06:19:35;;;;;;;26.52;7.55;;;;;;;11.40;100.00;101032.19;5145162;27;20755;-84
2022/05/17 06:22:03;;;;;;;17.48;6.22;;;;;;;11.58;100.00;101018.44;5142947;27;20053;-85
2022/05/17 06:24:30;;;;;;;33.63;8.05;;;;;;;11.61;100.00;101048.91;5147312;27;20043;-84
2022/05/17 06:26:56;;;;;;;20.40;6.53;;;;;;;11.82;100.00;101038.56;5144166;27;20057;-84
2022/05/17 06:29:23;;;;;;;22.83;7.68;;;;;;;11.67;100.00;101045.22;5145776;27;20154;-84
2022/05/17 06:31:50;;;;;;;13.15;6.53;;;;;;;11.91;100.00;101051.34;5133797;27;20782;-85
2022/05/17 06:34:16;;;;;;;11.82;5.55;;;;;;;12.15;100.00;101099.44;5166987;27;20053;-89
2022/05/17 06:36:43;;;;;;;15.38;6.90;;;;;;;11.67;100.00;101077.56;5143856;27;20057;-88
2022/05/17 06:39:19;;;;;;;13.75;6.70;;;;;;;11.78;100.00;101075.38;5154010;27;20043;-89
2022/05/17 06:41:47;;;;;;;11.10;5.03;;;;;;;11.64;100.00;101055.84;5153090;27;20158;-89
2022/05/17 06:44:14;;;;;;;19.58;7.38;;;;;;;11.34;100.00;101042.94;5154252;27;20054;-90
2022/05/17 06:46:41;;;;;;;12.93;6.30;;;;;;;11.71;100.00;101088.78;5165004;27;20173;-90
2022/05/17 06:49:08;;;;;;;11.77;5.55;;;;;;;11.51;100.00;101032.69;5152365;27;20107;-90
2022/05/17 06:51:37;;;;;;;10.60;4.93;;;;;;;11.72;100.00;101048.53;5142220;27;20415;-90
2022/05/17 06:54:05;;;;;;;9.80;4.82;;;;;;;12.00;100.00;101106.09;5146856;27;20058;-90
2022/05/17 06:56:33;;;;;;;10.25;5.45;;;;;;;11.92;100.00;101067.03;5148802;27;20047;-90
2022/05/17 06:59:00;;;;;;;10.77;5.72;;;;;;;11.79;100.00;101073.59;5147184;27;20039;-90
2022/05/17 07:01:27;;;;;;;12.27;5.55;;;;;;;12.05;100.00;101070.03;5147301;27;20052;-90
2022/05/17 07:03:54;;;;;;;9.70;4.43;;;;;;;12.05;100.00;101035.06;5149496;27;20111;-85
2022/05/17 07:06:21;;;;;;;11.00;6.10;;;;;;;12.50;100.00;101092.78;5150555;27;20054;-88
2022/05/17 07:08:48;;;;;;;10.60;5.97;;;;;;;12.08;100.00;101042.84;5154629;27;20130;-89
2022/05/17 07:14:00;;;;;;;15.68;8.73;;;;;;;11.91;100.00;101060.06;5155826;27;20049;-89
2022/05/17 07:16:27;;;;;;;13.77;6.30;;;;;;;12.43;100.00;101066.81;5150611;27;20089;-89
2022/05/17 07:18:54;;;;;;;13.75;7.65;;;;;;;12.22;100.00;101066.78;5154485;27;20049;-88
2022/05/17 07:21:40;;;;;;;12.43;6.35;;;;;;;12.37;100.00;101069.72;5155493;27;20480;-88
2022/05/17 07:24:07;;;;;;;18.75;8.25;;;;;;;12.28;100.00;101063.91;5155126;27;20044;-86
2022/05/17 07:26:34;;;;;;;12.73;6.40;;;;;;;12.64;100.00;101081.75;5149561;27;20052;-86
2022/05/17 07:29:01;;;;;;;18.52;10.25;;;;;;;12.61;100.00;101076.59;5144183;27;20054;-85
2022/05/17 07:31:27;;;;;;;16.05;7.18;;;;;;;12.60;100.00;101102.94;5135162;27;20039;-85
2022/05/17 07:33:57;;;;;;;14.18;6.63;;;;;;;13.00;100.00;101096.06;5146013;27;20177;-85
2022/05/17 07:36:24;;;;;;;15.68;8.45;;;;;;;13.03;100.00;101082.75;5149220;27;20852;-84
2022/05/17 07:38:51;;;;;;;13.30;6.50;;;;;;;12.94;100.00;101094.50;5152146;27;20046;-84
2022/05/17 07:41:17;;;;;;;17.20;8.48;;;;;;;12.75;100.00;101098.81;5142152;27;20043;-84
2022/05/17 07:43:44;;;;;;;16.25;7.25;;;;;;;12.89;100.00;101105.22;5149528;27;20047;-85
2022/05/17 07:46:11;;;;;;;15.77;8.80;;;;;;;12.31;100.00;101111.03;5148842;27;20053;-86
2022/05/17 07:48:38;;;;;;;12.23;5.93;;;;;;;12.38;100.00;101122.16;5146987;27;20515;-90
2022/05/17 07:51:06;;;;;;;13.40;6.78;;;;;;;12.39;100.00;101115.97;5161990;27;20047;-89
2022/05/17 07:53:39;;;;;;;9.32;4.75;;;;;;;12.54;100.00;101096.16;5156278;27;20039;-89
2022/05/17 07:56:06;;;;;;;18.08;10.00;;;;;;;12.49;100.00;101103.34;5162217;27;20471;-89
2022/05/17 07:58:32;;;;;;;13.30;6.70;;;;;;;12.54;100.00;101078.63;5161943;27;20054;-88
2022/05/17 08:00:59;;;;;;;11.13;6.22;;;;;;;12.81;100.00;101086.28;5154250;27;20054;-89
2022/05/17 08:03:26;;;;;;;12.75;7.05;;;;;;;12.88;100.00;101121.91;5145323;27;20047;-88
2022/05/17 08:05:58;;;;;;;11.02;5.75;;;;;;;12.81;100.00;101083.66;5132466;27;20384;-88
2022/05/17 08:08:25;;;;;;;14.43;7.75;;;;;;;12.30;100.00;101098.81;5131178;27;20042;-88
2022/05/17 08:10:53;;;;;;;12.15;6.63;;;;;;;12.61;100.00;101102.03;5149844;27;20399;-88
2022/05/17 08:13:21;;;;;;;12.27;6.32;;;;;;;12.69;100.00;101110.44;5149989;27;20631;-88
2022/05/17 08:15:49;;;;;;;9.23;4.18;;;;;;;13.23;100.00;101116.09;5136481;27;20126;-87
2022/05/17 08:18:16;;;;;;;9.60;5.00;;;;;;;13.34;100.00;101116.53;5135347;27;20075;-89
2022/05/17 08:20:44;;;;;;;10.70;4.38;;;;;;;13.33;100.00;101099.03;5132718;27;20043;-89
2022/05/17 08:23:12;;;;;;;8.82;4.20;;;;;;;13.44;100.00;101075.75;5132373;27;20049;-89
2022/05/17 08:28:24;;;;;;;7.78;3.38;;;;;;;13.60;100.00;101111.91;5135262;27;20047;-88
2022/05/17 08:30:51;;;;;;;8.82;4.35;;;;;;;13.70;100.00;101072.88;5132733;27;20043;-88
2022/05/17 08:33:23;;;;;;;9.23;4.90;;;;;;;13.44;100.00;101106.47;5140108;27;20054;-88
2022/05/17 08:35:57;;;;;;;8.18;3.78;;;;;;;13.90;100.00;101120.22;5148347;27;20443;-88
2022/05/17 08:38:34;;;;;;;9.32;4.60;;;;;;;13.48;100.00;101114.13;5149363;27;20112;-88
2022/05/17 08:41:41;;;;;;;9.93;3.97;;;;;;;13.83;100.00;101127.53;5132091;27;20047;-88
2022/05/17 08:44:13;;;;;;;11.07;5.38;;;;;;;13.85;100.00;101133.56;5132067;27;20039;-88
2022/05/17 08:46:58;;;;;;;10.60;5.30;;;;;;;13.51;100.00;101136.84;5134610;27;20125;-88
2022/05/17 08:49:44;;;;;;;10.48;4.18;;;;;;;14.13;100.00;101131.44;5152388;27;20061;-88
2022/05/17 08:52:21;;;;;;;12.57;5.75;;;;;;;13.68;100.00;101130.81;5153878;27;20051;-89
2022/05/17 08:54:55;;;;;;;12.50;6.20;;;;;;;13.52;100.00;101116.66;5134856;27;20053;-89
2022/05/17 08:57:37;;;;;;;12.40;5.55;;;;;;;13.59;100.00;101108.41;5148954;27;20046;-89
2022/05/17 09:00:29;;;;;;;11.65;5.50;;;;;;;13.35;100.00;101133.16;5133516;27;20465;-88
2022/05/17 09:03:09;;;;;;;12.23;6.40;;;;;;;13.52;100.00;101124.53;5132723;27;20051;-88
2022/05/17 09:05:57;;;;;;;10.85;4.70;;;;;;;13.31;100.00;101111.38;5152615;27;20492;-89
2022/05/17 09:08:59;;;;;;;12.00;5.43;;;;;;;14.01;100.00;101136.34;5137592;27;20039;-87
2022/05/17 09:11:43;;;;;;;14.10;7.38;;;;;;;13.39;100.00;101129.50;5152357;27;20055;-88
2022/05/17 09:14:19;;;;;;;11.07;4.85;;;;;;;13.78;100.00;101100.56;5152267;27;20047;-88
2022/05/17 09:16:59;;;;;;;10.40;4.88;;;;;;;14.47;100.00;101111.44;5147508;27;20130;-89
2022/05/17 09:19:27;;;;;;;10.07;5.03;;;;;;;14.10;100.00;101128.97;5133439;27;20051;-89
2022/05/17 09:21:58;;;;;;;11.95;6.18;;;;;;;13.52;100.00;101098.22;5153591;27;20120;-88
2022/05/17 09:24:29;;;;;;;11.88;5.78;;;;;;;13.51;100.00;101138.59;5152589;27;20377;-88
2022/05/17 09:27:08;;;;;;;15.05;7.78;;;;;;;13.73;100.00;101135.91;5145859;27;20061;-89
2022/05/17 09:29:58;;;;;;;12.75;6.65;;;;;;;13.61;100.00;101096.03;5132014;27;20369;-89
2022/05/17 09:32:30;;;;;;;12.10;5.93;;;;;;;13.72;100.00;101132.38;5132130;28;20138;-88
2022/05/17 09:35:07;;;;;;;15.88;7.78;;;;;;;13.65;100.00;101113.41;5135891;27;20442;-88
2022/05/17 09:37:39;;;;;;;16.77;8.18;;;;;;;13.76;100.00;101097.13;5130694;27;20051;-88
2022/05/17 09:40:10;;;;;;;17.90;8.00;;;;;;;13.74;100.00;101138.47;5145348;27;20400;-90
2022/05/17 09:42:59;;;;;;;15.57;8.13;;;;;;;13.91;100.00;101132.44;5158110;27;20070;-90
2022/05/17 09:45:46;;;;;;;15.70;7.03;;;;;;;13.51;100.00;101128.06;5164968;27;20072;-90
2022/05/17 09:48:27;;;;;;;12.68;6.15;;;;;;;13.55;100.00;101108.63;5137363;27;20062;-89
2022/05/17 09:53:44;;;;;;;18.20;8.55;;;;;;;13.72;100.00;101131.53;5140261;27;20050;-87
2022/05/17 09:56:12;;;;;;;14.73;7.68;;;;;;;13.78;100.00;101089.19;5131874;27;20077;-88
2022/05/17 09:58:42;;;;;;;15.25;7.72;;;;;;;14.10;100.00;101123.72;5153348;27;20054;-88
2022/05/17 10:01:11;;;;;;;13.85;6.68;;;;;;;14.18;100.00;101129.44;5152542;27;20051;-88
2022/05/17 10:03:41;;;;;;;13.18;6.00;;;;;;;14.09;100.00;101137.78;5153154;27;20056;-88
2022/05/17 10:06:15;;;;;;;13.23;6.22;;;;;;;14.04;100.00;101132.72;5148901;27;20047;-88
2022/05/17 10:08:56;;;;;;;20.33;8.63;;;;;;;13.49;100.00;101138.66;5134680;27;20080;-88
2022/05/17 10:11:25;;;;;;;18.38;9.30;;;;;;;12.83;100.00;101129.13;5134771;27;20130;-88
2022/05/17 10:14:17;;;;;;;16.63;8.00;;;;;;;13.03;100.00;101107.28;5134116;27;20057;-88
2022/05/17 10:16:47;;;;;;;14.50;7.05;;;;;;;13.61;100.00;101134.66;5138149;27;20053;-88
2022/05/17 10:19:40;;;;;;;21.38;7.88;;;;;;;13.51;100.00;101141.22;5155639;27;20047;-88
2022/05/17 10:22:15;;;;;;;18.77;7.47;;;;;;;13.75;100.00;101102.47;5154568;27;20053;-87
2022/05/17 10:24:52;;;;;;;15.68;7.47;;;;;;;13.80;100.00;101098.69;5154115;27;20047;-88
2022/05/17 10:27:25;;;;;;;17.00;5.68;;;;;;;13.61;100.00;101124.97;5145467;27;20525;-88
2022/05/17 10:29:52;;;;;;;;;;;;;;;13.65;100.00;101129.19;5134248;27;20047;-88
2022/05/17 10:32:22;;;;;;;15.95;7.57;;;;;;;13.85;100.00;101130.09;5133593;27;19929;-88
2022/05/17 10:35:16;;;;;;;15.15;6.93;;;;;;;14.14;100.00;101125.25;5133981;27;20080;-88
2022/05/17 10:38:01;;;;;;;18.30;6.95;;;;;;;13.88;100.00;101118.56;5141524;27;20047;-87
2022/05/17 10:40:32;;;;;;;16.58;8.05;;;;;;;13.04;100.00;101106.34;5133799;27;20054;-87
2022/05/17 10:43:00;;;;;;;17.95;7.93;;;;;;;13.29;100.00;101095.63;5133795;27;20043;-87
2022/05/17 10:45:35;;;;;;;14.40;7.53;;;;;;;13.05;100.00;101076.53;5133527;27;20082;-88
2022/05/17 10:48:24;;;;;;;24.40;9.75;;;;;;;14.21;100.00;101122.25;5148789;27;20047;-87
2022/05/17 10:51:27;;;;;;;17.33;8.00;;;;;;;13.82;100.00;101074.94;5153663;27;20051;-88
2022/05/17 10:54:36;;;;;;;16.00;6.82;;;;;;;14.68;100.00;101114.84;5154183;27;20053;-88
2022/05/17 10:57:10;;;;;;;13.27;6.53;;;;;;;14.53;100.00;101101.44;5144263;27;20057;-88
2022/05/17 10:59:45;;;;;;;11.50;5.80;;;;;;;14.75;100.00;101079.34;5133621;27;20384;-88
2022/05/17 11:02:27;;;;;;;15.20;7.43;;;;;;;14.51;100.00;101119.13;5139417;27;20459;-87
2022/05/17 11:05:24;;;;;;;14.45;6.10;;;;;;;14.74;100.00;101120.66;5137816;27;20122;-88
2022/05/17 11:07:51;;;;;;;12.25;6.18;;;;;;;14.93;100.00;101110.06;5146743;27;20050;-88
2022/05/17 11:10:34;;;;;;;11.23;4.90;;;;;;;15.41;100.00;101089.19;5153766;27;20065;-87
2022/05/17 11:13:22;;;;;;;12.80;6.68;;;;;;;14.96;100.00;101109.06;5154398;27;20046;-87
2022/05/17 11:16:01;;;;;;;14.90;7.07;;;;;;;14.68;100.00;101113.06;5153830;27;20484;-88
2022/05/17 11:18:31;;;;;;;14.30;6.45;;;;;;;15.90;100.00;101101.56;5153328;27;20141;-87
2022/05/17 11:21:08;;;;;;;16.60;7.82;;;;;;;15.23;100.00;101083.09;5153284;27;20708;-88
2022/05/17 11:24:25;;;;;;;14.10;7.32;;;;;;;14.99;100.00;101104.47;5154385;27;20046;-88
2022/05/17 11:27:47;;;;;;;12.52;5.78;;;;;;;15.56;100.00;101108.63;5135273;27;20061;-89
2022/05/17 11:30:20;;;;;;;14.50;6.95;;;;;;;14.98;100.00;101108.06;5073673;28;20052;-88
2022/05/17 11:33:21;;;;;;;12.35;6.10;;;;;;;15.74;100.00;101104.16;5130870;27;20091;-88
2022/05/17 11:35:51;;;;;;;13.60;6.70;;;;;;;15.29;100.00;101059.00;5149797;27;20050;-88
2022/05/17 11:38:49;;;;;;;14.65;6.93;;;;;;;15.54;100.00;101094.66;5136444;27;20039;-87